createdAt,value
2019-02-18T00:01:28.614Z,7.23
2019-02-18T00:03:56.297Z,6.83
2019-02-18T00:06:23.978Z,7.23
2019-02-18T00:08:52.594Z,7.40
2019-02-18T00:11:20.266Z,6.90
2019-02-18T00:13:48.216Z,7.00
2019-02-18T00:16:16.280Z,7.37
2019-02-18T00:18:43.920Z,6.13
2019-02-18T00:21:11.941Z,6.73
2019-02-18T00:23:40.606Z,7.20
2019-02-18T00:26:08.898Z,7.00
2019-02-18T00:28:37.132Z,7.17
2019-02-18T00:31:04.869Z,6.57
2019-02-18T00:33:32.834Z,7.23
2019-02-18T00:36:00.512Z,7.37
2019-02-18T00:38:28.728Z,7.63
2019-02-18T00:40:56.621Z,7.43
2019-02-18T00:43:24.652Z,6.50
2019-02-18T00:45:52.940Z,6.80
2019-02-18T00:48:21.235Z,6.83
2019-02-18T00:50:49.307Z,7.00
2019-02-18T00:53:17.685Z,6.97
2019-02-18T00:55:45.952Z,6.33
2019-02-18T00:58:13.922Z,7.07
2019-02-18T01:00:42.054Z,6.80
2019-02-18T01:03:10.410Z,6.30
2019-02-18T01:05:38.615Z,6.97
2019-02-18T01:08:06.656Z,6.67
2019-02-18T01:10:34.672Z,6.10
2019-02-18T01:13:02.708Z,6.70
2019-02-18T01:15:30.920Z,6.80
2019-02-18T01:17:58.869Z,6.93
2019-02-18T01:20:26.779Z,6.40
2019-02-18T01:22:55.043Z,6.83
2019-02-18T01:25:22.712Z,6.93
2019-02-18T01:27:50.633Z,7.10
2019-02-18T01:30:18.869Z,6.00
2019-02-18T01:32:47.032Z,6.53
2019-02-18T01:35:15.269Z,6.87
2019-02-18T01:37:46.109Z,6.60
2019-02-18T01:40:14.000Z,6.70
2019-02-18T01:42:41.646Z,6.43
2019-02-18T01:45:10.062Z,6.17
2019-02-18T01:47:37.708Z,6.17
2019-02-18T01:50:06.040Z,6.37
2019-02-18T01:52:34.205Z,7.00
2019-02-18T01:55:02.508Z,6.20
2019-02-18T01:57:30.809Z,5.90
2019-02-18T01:59:58.789Z,6.13
2019-02-18T02:02:26.811Z,6.40
2019-02-18T02:04:55.244Z,7.13
2019-02-18T02:07:23.325Z,6.53
2019-02-18T02:09:51.273Z,6.30
2019-02-18T02:12:19.617Z,6.43
2019-02-18T02:14:47.826Z,6.57
2019-02-18T02:17:15.798Z,6.70
2019-02-18T02:19:43.549Z,5.83
2019-02-18T02:22:11.766Z,6.30
2019-02-18T02:24:39.426Z,6.70
2019-02-18T02:27:07.471Z,5.80
2019-02-18T02:29:35.558Z,6.03
2019-02-18T02:32:03.504Z,6.93
2019-02-18T02:34:31.716Z,6.63
2019-02-18T02:36:59.741Z,5.90
2019-02-18T02:39:27.388Z,6.00
2019-02-18T02:41:55.529Z,6.20
2019-02-18T02:44:23.454Z,6.57
2019-02-18T02:46:51.379Z,6.33
2019-02-18T02:49:19.595Z,6.00
2019-02-18T02:51:47.972Z,5.97
2019-02-18T02:54:16.058Z,6.87
2019-02-18T02:56:43.701Z,6.40
2019-02-18T02:59:11.676Z,6.07
2019-02-18T03:01:40.058Z,6.70
2019-02-18T03:04:08.029Z,6.90
2019-02-18T03:06:36.356Z,6.03
2019-02-18T03:09:07.209Z,6.30
2019-02-18T03:11:35.465Z,6.50
2019-02-18T03:14:03.129Z,6.60
2019-02-18T03:16:31.056Z,5.90
2019-02-18T03:18:58.762Z,6.40
2019-02-18T03:21:26.438Z,6.03
2019-02-18T03:23:55.064Z,6.60
2019-02-18T03:26:23.401Z,6.43
2019-02-18T03:29:10.461Z,6.83
2019-02-18T03:31:38.830Z,7.33
2019-02-18T03:34:12.435Z,7.30
2019-02-18T03:36:40.445Z,6.60
2019-02-18T03:39:08.210Z,6.77
2019-02-18T03:41:36.236Z,6.20
2019-02-18T03:44:03.893Z,6.17
2019-02-18T03:46:31.571Z,6.70
2019-02-18T03:48:59.525Z,6.27
2019-02-18T03:51:27.301Z,6.70
2019-02-18T03:53:55.695Z,5.80
2019-02-18T03:56:23.735Z,6.03
2019-02-18T03:58:51.768Z,6.50
2019-02-18T04:01:20.093Z,6.73
2019-02-18T04:03:48.073Z,5.97
2019-02-18T04:06:16.426Z,6.97
2019-02-18T04:08:44.086Z,6.30
2019-02-18T04:11:12.084Z,6.27
2019-02-18T04:13:40.086Z,5.90
2019-02-18T04:16:08.430Z,6.70
2019-02-18T04:18:36.583Z,6.03
2019-02-18T04:21:04.574Z,6.10
2019-02-18T04:23:32.488Z,5.67
2019-02-18T04:26:00.170Z,6.20
2019-02-18T04:28:28.282Z,5.93
2019-02-18T04:30:56.938Z,6.20
2019-02-18T04:33:25.514Z,6.10
2019-02-18T04:35:53.413Z,5.60
2019-02-18T04:38:21.378Z,6.10
2019-02-18T04:40:49.116Z,5.80
2019-02-18T04:43:17.073Z,6.00
2019-02-18T04:45:44.961Z,5.67
2019-02-18T04:48:13.009Z,5.67
2019-02-18T04:50:40.905Z,6.30
2019-02-18T04:53:08.849Z,6.50
2019-02-18T04:55:37.469Z,7.03
2019-02-18T04:58:06.226Z,6.67
2019-02-18T05:00:34.416Z,6.53
2019-02-18T05:03:02.079Z,6.43
2019-02-18T05:05:29.722Z,6.70
2019-02-18T05:07:58.026Z,6.20
2019-02-18T05:10:25.957Z,6.60
2019-02-18T05:12:53.966Z,6.60
2019-02-18T05:15:21.909Z,6.70
2019-02-18T05:17:49.907Z,5.97
2019-02-18T05:20:17.875Z,6.87
2019-02-18T05:22:45.843Z,5.80
2019-02-18T05:25:14.094Z,5.70
2019-02-18T05:27:42.405Z,6.33
2019-02-18T05:30:10.354Z,6.03
2019-02-18T05:32:38.329Z,6.07
2019-02-18T05:35:06.131Z,6.00
2019-02-18T05:37:34.070Z,6.20
2019-02-18T05:40:01.996Z,6.00
2019-02-18T05:42:29.980Z,6.03
2019-02-18T05:44:58.689Z,6.00
2019-02-18T05:47:26.873Z,6.27
2019-02-18T05:49:54.858Z,5.60
2019-02-18T05:52:22.805Z,6.00
2019-02-18T05:54:51.148Z,6.10
2019-02-18T05:57:19.056Z,5.73
2019-02-18T05:59:47.091Z,6.03
2019-02-18T06:02:15.114Z,5.97
2019-02-18T06:04:43.057Z,6.30
2019-02-18T06:07:10.713Z,6.33
2019-02-18T06:09:38.727Z,5.67
2019-02-18T06:12:06.392Z,6.43
2019-02-18T06:14:34.649Z,5.90
2019-02-18T06:17:02.891Z,6.80
2019-02-18T06:19:31.081Z,6.60
2019-02-18T06:21:58.761Z,6.30
2019-02-18T06:24:26.670Z,6.90
2019-02-18T06:26:54.393Z,6.50
2019-02-18T06:29:22.902Z,6.20
2019-02-18T06:31:51.243Z,6.30
2019-02-18T06:34:19.197Z,6.37
2019-02-18T06:36:47.248Z,6.43
2019-02-18T06:39:14.902Z,6.10
2019-02-18T06:41:43.279Z,6.97
2019-02-18T06:44:11.105Z,6.30
2019-02-18T06:46:50.756Z,6.53
2019-02-18T06:49:20.748Z,6.47
2019-02-18T06:51:49.118Z,6.30
2019-02-18T06:54:16.791Z,6.90
2019-02-18T06:57:05.733Z,6.07
2019-02-18T06:59:37.493Z,6.60
2019-02-18T07:02:10.857Z,7.03
2019-02-18T07:04:57.646Z,6.60
2019-02-18T07:07:31.719Z,6.07
2019-02-18T07:10:03.112Z,6.30
2019-02-18T07:12:33.520Z,6.87
2019-02-18T07:15:01.632Z,6.30
2019-02-18T07:17:29.946Z,5.53
2019-02-18T07:19:58.242Z,6.30
2019-02-18T07:22:27.615Z,6.77
2019-02-18T07:24:55.809Z,7.07
2019-02-18T07:27:24.372Z,6.33
2019-02-18T07:29:52.020Z,6.10
2019-02-18T07:32:20.285Z,6.60
2019-02-18T07:34:48.207Z,6.40
2019-02-18T07:37:16.274Z,6.13
2019-02-18T07:39:44.326Z,6.87
2019-02-18T07:42:12.918Z,6.87
2019-02-18T07:44:41.275Z,5.87
2019-02-18T07:47:09.251Z,6.77
2019-02-18T07:49:37.037Z,6.00
2019-02-18T07:52:04.712Z,7.10
2019-02-18T07:54:32.702Z,6.13
2019-02-18T07:57:00.381Z,6.80
2019-02-18T07:59:28.070Z,6.50
2019-02-18T08:01:56.363Z,7.10
2019-02-18T08:04:24.434Z,7.63
2019-02-18T08:06:52.425Z,6.77
2019-02-18T08:09:20.782Z,6.37
2019-02-18T08:11:49.164Z,6.37
2019-02-18T08:14:17.325Z,6.03
2019-02-18T08:16:45.375Z,6.40
2019-02-18T08:19:15.512Z,6.80
2019-02-18T08:21:43.390Z,6.57
2019-02-18T08:24:11.479Z,6.97
2019-02-18T08:26:39.410Z,7.30
2019-02-18T08:29:07.821Z,6.67
2019-02-18T08:31:36.198Z,7.20
2019-02-18T08:34:03.848Z,6.23
2019-02-18T08:36:31.825Z,7.23
2019-02-18T08:39:00.102Z,7.03
2019-02-18T08:41:28.369Z,6.70
2019-02-18T08:43:56.034Z,6.80
2019-02-18T08:46:24.143Z,6.80
2019-02-18T08:48:52.684Z,7.20
2019-02-18T08:51:20.733Z,6.13
2019-02-18T08:53:48.398Z,7.30
2019-02-18T08:56:16.374Z,7.50
2019-02-18T08:58:44.409Z,6.97
2019-02-18T09:01:12.099Z,6.87
2019-02-18T09:03:40.055Z,6.70
2019-02-18T09:06:08.600Z,7.03
2019-02-18T09:08:36.774Z,7.23
2019-02-18T09:11:04.836Z,7.20
2019-02-18T09:13:33.078Z,7.63
2019-02-18T09:16:01.533Z,7.53
2019-02-18T09:18:29.749Z,8.03
2019-02-18T09:20:57.794Z,8.13
2019-02-18T09:23:42.093Z,7.90
2019-02-18T09:26:10.045Z,7.00
2019-02-18T09:28:38.428Z,7.97
2019-02-18T09:31:06.841Z,7.80
2019-02-18T09:33:34.850Z,7.77
2019-02-18T09:36:02.830Z,7.47
2019-02-18T09:38:30.777Z,6.83
2019-02-18T09:40:59.086Z,7.50
2019-02-18T09:43:26.749Z,7.30
2019-02-18T09:45:55.165Z,7.43
2019-02-18T09:48:22.845Z,7.40
2019-02-18T09:50:51.381Z,7.73
2019-02-18T09:53:19.327Z,8.17
2019-02-18T09:55:47.333Z,7.27
2019-02-18T09:58:15.018Z,8.30
2019-02-18T10:00:43.011Z,8.23
2019-02-18T10:03:11.327Z,7.53
2019-02-18T10:05:39.606Z,7.50
2019-02-18T10:08:07.586Z,8.20
2019-02-18T10:10:35.593Z,8.00
2019-02-18T10:13:03.618Z,7.70
2019-02-18T10:15:31.625Z,7.60
2019-02-18T10:17:59.538Z,7.07
2019-02-18T10:20:27.840Z,7.47
2019-02-18T10:22:56.203Z,6.60
2019-02-18T10:25:23.849Z,6.50
2019-02-18T10:27:52.255Z,8.20
2019-02-18T10:30:20.840Z,8.07
2019-02-18T10:32:49.211Z,7.70
2019-02-18T10:35:17.495Z,7.07
2019-02-18T10:37:54.623Z,8.20
2019-02-18T10:40:14.917Z,7.67
2019-02-18T10:42:43.106Z,7.33
2019-02-18T10:45:11.410Z,7.50
2019-02-18T10:47:39.109Z,7.13
2019-02-18T10:50:07.751Z,7.20
2019-02-18T10:52:35.719Z,7.13
2019-02-18T10:55:03.538Z,7.17
2019-02-18T10:57:31.528Z,7.60
2019-02-18T11:00:00.365Z,7.17
2019-02-18T11:02:28.405Z,7.70
2019-02-18T11:04:56.350Z,6.77
2019-02-18T11:07:24.886Z,8.40
2019-02-18T11:09:53.499Z,7.70
2019-02-18T11:12:22.055Z,7.70
2019-02-18T11:14:50.071Z,7.27
2019-02-18T11:17:18.702Z,7.10
2019-02-18T11:19:47.130Z,8.40
2019-02-18T11:22:15.065Z,7.27
2019-02-18T11:24:43.174Z,7.93
2019-02-18T11:27:11.142Z,7.30
2019-02-18T11:29:38.810Z,7.57
2019-02-18T11:32:06.767Z,7.97
2019-02-18T11:34:35.089Z,7.43
2019-02-18T11:37:02.744Z,8.10
2019-02-18T11:39:31.058Z,7.50
2019-02-18T11:41:59.230Z,8.20
2019-02-18T11:44:26.903Z,8.43
2019-02-18T11:46:54.553Z,7.87
2019-02-18T11:49:22.495Z,7.67
2019-02-18T11:51:50.436Z,7.70
2019-02-18T11:54:18.567Z,7.83
2019-02-18T11:56:46.236Z,7.13
2019-02-18T11:59:23.931Z,7.47
2019-02-18T12:01:44.281Z,8.20
2019-02-18T12:04:12.256Z,7.80
2019-02-18T12:06:40.647Z,7.33
2019-02-18T12:09:08.885Z,7.63
2019-02-18T12:11:38.385Z,7.80
2019-02-18T12:14:06.483Z,7.73
2019-02-18T12:16:34.741Z,7.90
2019-02-18T12:19:02.972Z,7.50
2019-02-18T12:21:30.945Z,6.87
2019-02-18T12:23:58.888Z,6.87
2019-02-18T12:26:26.910Z,6.40
2019-02-18T12:28:54.890Z,7.60
2019-02-18T12:31:23.299Z,7.00
2019-02-18T12:33:52.044Z,6.67
2019-02-18T12:36:20.773Z,6.33
2019-02-18T12:38:48.695Z,7.17
2019-02-18T12:41:17.225Z,7.60
2019-02-18T12:43:45.726Z,6.70
2019-02-18T12:46:16.039Z,6.70
2019-02-18T12:48:43.694Z,6.57
2019-02-18T12:51:11.993Z,6.47
2019-02-18T12:53:40.001Z,6.90
2019-02-18T12:56:08.646Z,6.23
2019-02-18T12:58:36.662Z,5.70
2019-02-18T13:01:06.173Z,6.23
2019-02-18T13:03:34.390Z,6.10
2019-02-18T13:06:02.830Z,5.80
2019-02-18T13:08:30.790Z,6.40
2019-02-18T13:10:58.745Z,6.27
2019-02-18T13:13:27.144Z,5.90
2019-02-18T13:15:55.221Z,5.90
2019-02-18T13:18:23.532Z,6.00
2019-02-18T13:20:52.206Z,6.07
2019-02-18T13:23:20.240Z,5.30
2019-02-18T13:25:48.488Z,6.10
2019-02-18T13:28:16.314Z,6.00
2019-02-18T13:30:44.920Z,6.10
2019-02-18T13:33:12.953Z,6.50
2019-02-18T13:35:41.254Z,5.80
2019-02-18T13:38:09.605Z,6.27
2019-02-18T13:40:37.957Z,5.10
2019-02-18T13:43:06.289Z,6.07
2019-02-18T13:45:34.022Z,5.73
2019-02-18T13:48:01.930Z,5.70
2019-02-18T13:50:30.190Z,5.60
2019-02-18T13:52:58.428Z,6.20
2019-02-18T13:55:26.393Z,5.90
2019-02-18T13:57:55.020Z,5.53
2019-02-18T14:00:23.382Z,6.17
2019-02-18T14:02:51.037Z,5.80
2019-02-18T14:05:19.146Z,5.90
2019-02-18T14:07:46.862Z,5.50
2019-02-18T14:10:15.282Z,5.67
2019-02-18T14:12:42.944Z,5.50
2019-02-18T14:15:11.277Z,5.50
2019-02-18T14:17:39.256Z,5.20
2019-02-18T14:20:08.970Z,5.07
2019-02-18T14:22:36.943Z,4.97
2019-02-18T14:25:05.034Z,4.67
2019-02-18T14:27:33.615Z,4.87
2019-02-18T14:30:01.722Z,3.50
2019-02-18T14:32:29.774Z,2.87
2019-02-18T14:34:58.245Z,2.77
2019-02-18T14:37:26.638Z,2.93
2019-02-18T14:39:54.658Z,2.70
2019-02-18T14:42:24.558Z,2.93
2019-02-18T14:44:52.715Z,2.60
2019-02-18T14:47:20.762Z,3.00
2019-02-18T14:49:48.781Z,3.10
2019-02-18T14:52:17.019Z,3.23
2019-02-18T14:54:44.936Z,2.77
2019-02-18T14:57:13.082Z,2.80
2019-02-18T14:59:41.490Z,2.63
2019-02-18T15:02:09.264Z,3.00
2019-02-18T15:04:37.251Z,2.70
2019-02-18T15:07:05.197Z,2.60
2019-02-18T15:09:33.669Z,2.57
2019-02-18T15:12:01.953Z,2.90
2019-02-18T15:14:29.997Z,2.80
2019-02-18T15:16:57.656Z,2.73
2019-02-18T15:19:25.321Z,2.87
2019-02-18T15:21:53.321Z,3.30
2019-02-18T15:24:20.977Z,2.77
2019-02-18T15:26:48.672Z,2.87
2019-02-18T15:29:16.413Z,2.70
2019-02-18T15:31:44.414Z,2.93
2019-02-18T15:34:12.119Z,3.57
2019-02-18T15:36:40.678Z,3.03
2019-02-18T15:39:08.760Z,3.60
2019-02-18T15:41:37.067Z,3.20
2019-02-18T15:44:05.359Z,3.20
2019-02-18T15:46:33.684Z,2.73
2019-02-18T15:49:02.644Z,3.20
2019-02-18T15:51:30.985Z,3.00
2019-02-18T15:53:58.938Z,2.53
2019-02-18T15:56:26.686Z,2.70
2019-02-18T15:58:54.774Z,2.93
2019-02-18T16:01:22.761Z,3.00
2019-02-18T16:03:50.425Z,3.40
2019-02-18T16:06:18.346Z,3.33
2019-02-18T16:08:46.281Z,3.30
2019-02-18T16:11:14.581Z,2.77
2019-02-18T16:13:42.924Z,2.73
2019-02-18T16:16:11.262Z,3.00
2019-02-18T16:18:39.001Z,3.43
2019-02-18T16:21:07.336Z,3.37
2019-02-18T16:23:35.303Z,3.50
2019-02-18T16:26:02.947Z,2.97
2019-02-18T16:28:30.637Z,3.13
2019-02-18T16:30:58.950Z,3.70
2019-02-18T16:33:26.943Z,3.33
2019-02-18T16:35:54.941Z,3.10
2019-02-18T16:38:23.249Z,3.70
2019-02-18T16:40:51.210Z,3.50
2019-02-18T16:43:19.892Z,3.60
2019-02-18T16:45:48.192Z,3.77
2019-02-18T16:48:16.508Z,3.37
2019-02-18T16:50:44.707Z,3.47
2019-02-18T16:53:12.920Z,3.70
2019-02-18T16:55:40.920Z,3.60
2019-02-18T16:58:09.174Z,3.53
2019-02-18T17:00:37.194Z,3.53
2019-02-18T17:03:04.841Z,3.60
2019-02-18T17:05:32.729Z,3.70
2019-02-18T17:08:00.406Z,3.50
2019-02-18T17:10:28.408Z,3.90
2019-02-18T17:12:57.023Z,4.40
2019-02-18T17:15:25.019Z,3.77
2019-02-18T17:17:53.037Z,3.20
2019-02-18T17:20:21.004Z,3.60
2019-02-18T17:22:48.938Z,3.70
2019-02-18T17:25:16.918Z,4.00
2019-02-18T17:27:45.450Z,3.60
2019-02-18T17:30:13.755Z,4.00
2019-02-18T17:32:42.038Z,3.93
2019-02-18T17:35:11.977Z,4.00
2019-02-18T17:37:39.926Z,3.80
2019-02-18T17:40:08.349Z,4.43
2019-02-18T17:42:36.950Z,3.87
2019-02-18T17:45:05.700Z,4.20
2019-02-18T17:47:33.737Z,4.17
2019-02-18T17:50:01.728Z,4.60
2019-02-18T17:52:29.413Z,4.00
2019-02-18T17:54:57.590Z,3.70
2019-02-18T17:57:25.898Z,4.23
2019-02-18T17:59:53.953Z,5.57
2019-02-18T18:02:22.252Z,6.10
2019-02-18T18:04:50.479Z,6.20
2019-02-18T18:07:18.124Z,6.00
2019-02-18T18:09:46.313Z,6.60
2019-02-18T18:12:14.285Z,6.73
2019-02-18T18:14:42.873Z,7.17
2019-02-18T18:17:11.105Z,7.27
2019-02-18T18:19:38.855Z,5.53
2019-02-18T18:22:07.272Z,5.90
2019-02-18T18:24:35.024Z,5.10
2019-02-18T18:27:02.673Z,5.17
2019-02-18T18:29:31.210Z,5.23
2019-02-18T18:31:58.864Z,4.43
2019-02-18T18:34:26.940Z,4.50
2019-02-18T18:36:54.598Z,4.23
2019-02-18T18:39:23.083Z,4.10
2019-02-18T18:41:51.413Z,4.27
2019-02-18T18:44:19.338Z,4.40
2019-02-18T18:46:47.344Z,3.80
2019-02-18T18:49:15.557Z,4.20
2019-02-18T18:51:43.237Z,4.00
2019-02-18T18:54:11.719Z,4.57
2019-02-18T18:56:39.790Z,4.00
2019-02-18T18:59:07.909Z,4.30
2019-02-18T19:01:36.024Z,4.10
2019-02-18T19:04:04.583Z,3.77
2019-02-18T19:06:32.253Z,4.00
2019-02-18T19:09:00.269Z,4.50
2019-02-18T19:11:30.140Z,4.70
2019-02-18T19:13:57.998Z,3.97
2019-02-18T19:16:25.961Z,4.53
2019-02-18T19:18:53.963Z,4.97
2019-02-18T19:21:22.152Z,4.70
2019-02-18T19:23:49.825Z,4.17
2019-02-18T19:26:17.554Z,3.67
2019-02-18T19:28:46.575Z,3.53
2019-02-18T19:31:14.634Z,3.63
2019-02-18T19:33:42.762Z,3.60
2019-02-18T19:36:11.108Z,4.10
2019-02-18T19:38:39.101Z,4.37
2019-02-18T19:41:07.102Z,4.63
2019-02-18T19:43:35.610Z,4.40
2019-02-18T19:46:03.567Z,3.90
2019-02-18T19:48:31.796Z,4.20
2019-02-18T19:50:59.813Z,4.20
2019-02-18T19:53:28.079Z,4.37
2019-02-18T19:55:56.654Z,4.00
2019-02-18T19:58:24.745Z,4.00
2019-02-18T20:00:53.023Z,3.80
2019-02-18T20:03:20.690Z,4.80
2019-02-18T20:05:48.559Z,3.90
2019-02-18T20:08:17.133Z,4.67
2019-02-18T20:10:45.293Z,4.47
2019-02-18T20:13:13.561Z,4.57
2019-02-18T20:15:41.237Z,4.63
2019-02-18T20:18:09.679Z,4.07
2019-02-18T20:20:37.800Z,4.27
2019-02-18T20:23:06.004Z,4.77
2019-02-18T20:25:34.374Z,4.90
2019-02-18T20:28:02.307Z,4.23
2019-02-18T20:30:30.395Z,4.20
2019-02-18T20:32:58.462Z,4.63
2019-02-18T20:35:26.737Z,4.23
2019-02-18T20:37:54.915Z,4.27
2019-02-18T20:40:23.192Z,4.10
2019-02-18T20:42:51.281Z,4.80
2019-02-18T20:45:19.333Z,4.50
2019-02-18T20:47:47.224Z,4.93
2019-02-18T20:50:15.049Z,5.27
2019-02-18T20:52:42.712Z,5.03
2019-02-18T20:55:10.786Z,4.47
2019-02-18T20:57:38.728Z,4.57
2019-02-18T21:00:11.043Z,4.70
2019-02-18T21:02:39.082Z,6.00
2019-02-18T21:05:07.293Z,5.50
2019-02-18T21:07:34.940Z,5.53
2019-02-18T21:10:03.345Z,4.70
2019-02-18T21:12:31.835Z,5.50
2019-02-18T21:15:00.290Z,4.73
2019-02-18T21:17:28.375Z,5.40
2019-02-18T21:19:56.101Z,5.67
2019-02-18T21:22:24.445Z,6.17
2019-02-18T21:24:52.094Z,6.40
2019-02-18T21:27:20.046Z,6.30
2019-02-18T21:29:47.961Z,5.87
2019-02-18T21:32:15.954Z,5.40
2019-02-18T21:34:43.964Z,5.37
2019-02-18T21:37:11.642Z,5.50
2019-02-18T21:39:39.642Z,5.10
2019-02-18T21:42:07.322Z,5.60
2019-02-18T21:44:37.185Z,5.20
2019-02-18T21:47:04.808Z,4.70
2019-02-18T21:49:32.697Z,5.40
2019-02-18T21:52:00.694Z,5.60
2019-02-18T21:54:28.345Z,6.70
2019-02-18T21:56:56.416Z,7.50
2019-02-18T21:59:24.450Z,7.00
2019-02-18T22:01:52.626Z,4.60
2019-02-18T22:04:20.309Z,5.50
2019-02-18T22:06:47.985Z,5.30
2019-02-18T22:09:15.932Z,5.20
2019-02-18T22:11:43.941Z,5.13
2019-02-18T22:14:12.265Z,5.67
2019-02-18T22:16:39.934Z,6.00
2019-02-18T22:19:08.473Z,5.40
2019-02-18T22:21:36.409Z,5.70
2019-02-18T22:24:04.756Z,5.60
2019-02-18T22:26:33.054Z,5.83
2019-02-18T22:29:01.057Z,5.60
2019-02-18T22:31:29.789Z,5.40
2019-02-18T22:33:57.756Z,5.13
2019-02-18T22:36:25.680Z,4.57
2019-02-18T22:38:53.344Z,5.37
2019-02-18T22:41:21.893Z,7.07
2019-02-18T22:43:50.164Z,6.50
2019-02-18T22:46:18.085Z,6.93
2019-02-18T22:48:46.045Z,6.10
2019-02-18T22:51:14.254Z,5.40
2019-02-18T22:53:42.608Z,6.00
2019-02-18T22:56:10.353Z,5.90
2019-02-18T22:58:38.695Z,5.30
2019-02-18T23:01:08.393Z,5.07
2019-02-18T23:03:36.292Z,5.13
2019-02-18T23:06:04.253Z,5.50
2019-02-18T23:08:32.260Z,5.60
2019-02-18T23:11:00.782Z,5.90
2019-02-18T23:13:29.588Z,6.70
2019-02-18T23:15:57.250Z,5.97
2019-02-18T23:18:25.922Z,5.93
2019-02-18T23:20:53.605Z,5.43
2019-02-18T23:23:21.252Z,4.80
2019-02-18T23:25:49.180Z,5.33
2019-02-18T23:28:18.201Z,5.93
2019-02-18T23:30:46.448Z,5.10
2019-02-18T23:33:14.105Z,4.93
2019-02-18T23:35:42.081Z,5.67
2019-02-18T23:38:09.743Z,5.20
2019-02-18T23:40:37.397Z,5.40
2019-02-18T23:43:05.349Z,5.27
2019-02-18T23:45:33.626Z,4.90
2019-02-18T23:48:01.858Z,5.20
2019-02-18T23:50:29.518Z,5.10
2019-02-18T23:52:57.912Z,5.13
2019-02-18T23:55:26.282Z,5.40
2019-02-18T23:57:54.327Z,4.43
